Terminal Aerodrome Forecast
Issued by NWS

Home | Current Version | Previous Version | Text Only | Print | Product List | Glossary On
Versions: 1 2 3 4 5 6 7 8 9 10 11 12 13
600
FTUS43 KAPX 030520
TAFPLN
TAF
KPLN 030520Z 0306/0406 00000KT P6SM SKC
     FM031400 23004KT P6SM FEW250
     FM031800 24009KT P6SM BKN150
     FM032200 27005KT P6SM VCSH BKN060
     FM040200 27005KT P6SM -SHRA SCT006 OVC040
     FM040500 30005KT P6SM VCSH BKN006 OVC035=

USA.gov is the U.S. government's official web portal to all federal, state and local government web resources and services.